Time;durP1;ratioP1;P1;durP2;ratioP2;P2;SDS_P1;SDS_P2;PMS_P1;PMS_P2;Temp;Humidity;BMP_temperature;BMP_pressure;BME280_temperature;BME280_humidity;BME280_pressure;Samples;Min_cycle;Max_cycle;Signal;HPM_P1;HPM_P2
2022/01/21 00:00:48;;;;;;;7.13;1.10;;;24.20;99.90;;;;;;5034907;28;20190;-83
2022/01/21 00:03:21;;;;;;;5.90;1.20;;;24.20;99.90;;;;;;5032269;28;20186;-82
2022/01/21 00:05:52;;;;;;;4.53;1.00;;;24.30;99.90;;;;;;5032521;28;20194;-82
2022/01/21 00:08:22;;;;;;;6.63;1.23;;;24.30;99.90;;;;;;5034079;28;20218;-81
2022/01/21 00:10:53;;;;;;;7.57;1.27;;;24.30;99.90;;;;;;5037716;28;20213;-81
2022/01/21 00:13:33;;;;;;;7.90;1.30;;;24.10;99.90;;;;;;5029452;28;20194;-83
2022/01/21 00:16:04;;;;;;;6.75;1.30;;;24.10;99.90;;;;;;5039248;28;20185;-81
2022/01/21 00:18:39;;;;;;;7.55;1.40;;;24.00;99.90;;;;;;5034346;28;20187;-83
2022/01/21 00:32:21;;;;;;;5.30;1.10;;;24.00;99.90;;;;;;5035545;28;20193;-81
2022/01/21 00:34:53;;;;;;;6.90;1.38;;;24.30;99.90;;;;;;5037107;28;20642;-81
2022/01/21 00:37:24;;;;;;;6.28;1.05;;;24.10;99.90;;;;;;5034173;28;20194;-82
2022/01/21 00:39:58;;;;;;;5.93;1.73;;;23.90;99.90;;;;;;5033197;28;20217;-82
2022/01/21 00:45:15;;;;;;;4.85;1.08;;;23.90;99.90;;;;;;5027044;28;20244;-82
2022/01/21 00:47:46;;;;;;;4.30;1.33;;;24.10;99.90;;;;;;5029649;28;20558;-82
2022/01/21 00:50:19;;;;;;;3.92;0.93;;;24.10;99.90;;;;;;5027636;28;20249;-83
2022/01/21 00:52:49;;;;;;;4.20;1.00;;;24.10;99.90;;;;;;5032657;28;20233;-82
2022/01/21 00:55:20;;;;;;;5.53;1.15;;;24.00;99.90;;;;;;5038340;28;20240;-83
2022/01/21 00:57:50;;;;;;;7.07;1.15;;;23.80;99.90;;;;;;5039294;28;20194;-81
2022/01/21 01:00:21;;;;;;;9.00;1.17;;;23.80;99.90;;;;;;5027190;28;20265;-82
2022/01/21 01:02:52;;;;;;;4.65;1.00;;;23.70;99.90;;;;;;5031776;28;20194;-82
2022/01/21 01:05:25;;;;;;;7.13;1.35;;;23.60;99.90;;;;;;5027696;28;20195;-83
2022/01/21 01:07:58;;;;;;;8.57;2.10;;;23.60;99.90;;;;;;5037457;28;20268;-81
2022/01/21 01:10:43;;;;;;;4.10;1.02;;;23.70;99.90;;;;;;5032541;28;20268;-82
2022/01/21 01:21:46;;;;;;;7.55;1.48;;;24.70;99.90;;;;;;4971174;28;20307;-81
2022/01/21 01:29:50;;;;;;;6.50;1.17;;;25.00;99.90;;;;;;5027367;28;20217;-81
2022/01/21 01:32:24;;;;;;;4.78;1.25;;;24.90;99.90;;;;;;5030245;28;20194;-83
2022/01/21 01:34:54;;;;;;;7.53;1.38;;;24.90;99.90;;;;;;5031062;28;20221;-81
2022/01/21 01:37:38;;;;;;;6.20;1.08;;;25.00;99.90;;;;;;5031157;28;20332;-81
2022/01/21 01:40:22;;;;;;;6.93;1.30;;;24.90;99.90;;;;;;5029311;28;20228;-81
2022/01/21 01:51:21;;;;;;;6.35;1.10;;;23.90;99.90;;;;;;5023689;28;20209;-82
2022/01/21 01:53:58;;;;;;;8.27;1.95;;;23.70;99.90;;;;;;5024349;28;20209;-81
2022/01/21 01:56:32;;;;;;;9.45;1.40;;;23.90;99.90;;;;;;5028319;28;20210;-81
2022/01/21 01:59:03;;;;;;;8.25;1.30;;;24.10;99.90;;;;;;5034917;28;20201;-81
2022/01/21 02:01:34;;;;;;;7.38;1.30;;;24.30;99.90;;;;;;5032828;28;20651;-81
2022/01/21 02:04:05;;;;;;;8.02;1.50;;;24.40;99.90;;;;;;5032042;28;20657;-81
2022/01/21 02:06:36;;;;;;;8.73;1.35;;;24.30;99.90;;;;;;5032999;28;20236;-80
2022/01/21 02:09:08;;;;;;;9.55;1.55;;;24.30;99.90;;;;;;5031289;28;20221;-81
2022/01/21 02:11:39;;;;;;;9.07;1.60;;;24.10;99.90;;;;;;5031958;28;20591;-80
2022/01/21 02:14:16;;;;;;;10.25;1.77;;;24.10;99.90;;;;;;5040371;28;20190;-81
2022/01/21 02:17:11;;;;;;;4.93;1.42;;;24.10;99.90;;;;;;5032048;28;20271;-81
2022/01/21 02:22:35;;;;;;;5.20;1.48;;;24.00;99.90;;;;;;5037802;28;21418;-81
2022/01/21 02:25:16;;;;;;;6.00;1.10;;;24.00;99.90;;;;;;5032429;28;20232;-80
2022/01/21 02:27:48;;;;;;;8.50;1.60;;;23.90;99.90;;;;;;5032656;28;20183;-81
2022/01/21 02:30:20;;;;;;;7.38;1.40;;;23.60;99.90;;;;;;5032998;28;20197;-80
2022/01/21 02:32:52;;;;;;;8.25;1.50;;;23.60;99.90;;;;;;5030021;28;20216;-81
2022/01/21 02:35:24;;;;;;;6.93;1.40;;;23.50;99.90;;;;;;5032164;28;20187;-81
2022/01/21 02:37:56;;;;;;;7.97;1.45;;;23.30;99.90;;;;;;5031199;28;20197;-82
2022/01/21 02:40:27;;;;;;;8.00;1.52;;;23.30;99.90;;;;;;5034162;28;20187;-81
2022/01/21 02:42:58;;;;;;;6.88;1.67;;;23.20;99.90;;;;;;5034818;28;20249;-81
2022/01/21 02:45:29;;;;;;;10.60;1.58;;;23.20;99.90;;;;;;5035392;28;20190;-82
2022/01/21 02:48:00;;;;;;;7.88;1.40;;;23.20;99.90;;;;;;5038488;28;20194;-82
2022/01/21 02:50:34;;;;;;;7.00;1.40;;;23.10;99.90;;;;;;5032392;28;20206;-81
2022/01/21 02:53:22;;;;;;;5.05;1.10;;;23.00;99.90;;;;;;5033504;28;20190;-81
2022/01/21 02:55:53;;;;;;;9.55;1.50;;;22.90;99.90;;;;;;5031836;28;20205;-82
2022/01/21 02:58:24;;;;;;;11.38;1.98;;;22.90;99.90;;;;;;5034833;28;20642;-81
2022/01/21 03:00:55;;;;;;;8.70;1.73;;;22.90;99.90;;;;;;5035481;28;20198;-81
2022/01/21 03:03:26;;;;;;;8.52;1.38;;;22.80;99.90;;;;;;5035898;28;20675;-81
2022/01/21 03:05:56;;;;;;;7.38;1.33;;;22.80;99.90;;;;;;5040657;28;20212;-82
2022/01/21 03:08:29;;;;;;;10.88;1.55;;;22.80;99.90;;;;;;5032062;28;20681;-82
2022/01/21 03:11:00;;;;;;;9.13;1.40;;;22.70;99.90;;;;;;5036847;28;20206;-80
2022/01/21 03:13:30;;;;;;;9.25;1.63;;;22.70;99.90;;;;;;5040114;28;20241;-81
2022/01/21 03:16:01;;;;;;;10.18;1.35;;;22.70;99.90;;;;;;5038880;28;20193;-80
2022/01/21 03:18:31;;;;;;;5.97;1.50;;;22.80;99.90;;;;;;5033910;28;20601;-80
2022/01/21 03:21:02;;;;;;;8.25;1.65;;;22.90;99.90;;;;;;5035111;28;20189;-81
2022/01/21 03:23:35;;;;;;;7.70;1.80;;;23.00;99.90;;;;;;5035427;28;20197;-81
2022/01/21 03:26:05;;;;;;;7.15;1.40;;;23.00;99.90;;;;;;5035788;28;20194;-81
2022/01/21 03:28:36;;;;;;;8.93;1.38;;;23.10;99.90;;;;;;5035037;28;20674;-81
2022/01/21 03:31:07;;;;;;;6.97;1.55;;;23.10;99.90;;;;;;5033186;28;20202;-81
2022/01/21 03:33:37;;;;;;;6.32;1.08;;;23.20;99.90;;;;;;5033566;28;20190;-81
2022/01/21 03:36:12;;;;;;;6.60;1.40;;;23.30;99.90;;;;;;5034836;28;20232;-81
2022/01/21 03:38:45;;;;;;;6.88;1.52;;;23.40;99.90;;;;;;5035259;28;20555;-81
2022/01/21 03:41:16;;;;;;;8.55;1.30;;;23.50;99.90;;;;;;5035514;28;20198;-82
2022/01/21 03:43:50;;;;;;;10.38;1.40;;;23.50;99.90;;;;;;5030169;28;20222;-80
2022/01/21 03:46:21;;;;;;;10.55;1.42;;;23.40;99.90;;;;;;5035417;28;20617;-82
2022/01/21 03:48:51;;;;;;;10.40;1.60;;;23.40;99.90;;;;;;5035814;28;20266;-81
2022/01/21 03:51:23;;;;;;;6.65;1.33;;;23.30;99.90;;;;;;5035532;28;20194;-81
2022/01/21 03:53:55;;;;;;;8.35;1.52;;;23.30;99.90;;;;;;5034908;28;20198;-80
2022/01/21 03:56:26;;;;;;;12.02;1.40;;;23.30;99.90;;;;;;5039909;28;20190;-82
2022/01/21 03:58:57;;;;;;;7.38;1.20;;;23.10;99.90;;;;;;5035082;28;20191;-80
2022/01/21 04:01:28;;;;;;;6.80;1.30;;;22.90;99.90;;;;;;5037436;28;20605;-81
2022/01/21 04:03:59;;;;;;;7.18;1.25;;;22.70;99.90;;;;;;5035017;28;20645;-82
2022/01/21 04:06:30;;;;;;;7.50;1.48;;;22.60;99.90;;;;;;5035211;28;20191;-80
2022/01/21 04:09:02;;;;;;;7.65;1.30;;;22.40;99.90;;;;;;5036468;28;20716;-80
2022/01/21 04:11:33;;;;;;;10.32;1.33;;;22.30;99.90;;;;;;5034801;28;20190;-81
2022/01/21 04:14:04;;;;;;;6.72;1.35;;;22.10;99.90;;;;;;5034749;28;20186;-81
2022/01/21 04:16:34;;;;;;;8.23;1.10;;;22.00;99.90;;;;;;5033469;28;20201;-80
2022/01/21 04:19:05;;;;;;;5.45;1.00;;;21.80;99.90;;;;;;5033974;28;20229;-80
2022/01/21 04:21:36;;;;;;;6.05;1.20;;;21.60;99.90;;;;;;5032762;28;20194;-80
2022/01/21 04:24:09;;;;;;;8.15;1.80;;;21.60;99.90;;;;;;5034924;28;20257;-80
2022/01/21 04:26:40;;;;;;;6.63;1.10;;;21.50;99.90;;;;;;5035947;28;20201;-81
2022/01/21 04:29:13;;;;;;;5.00;1.25;;;21.40;99.90;;;;;;5034309;28;20214;-80
2022/01/21 04:31:44;;;;;;;5.38;1.15;;;21.50;99.90;;;;;;5027461;28;20274;-80
2022/01/21 04:34:14;;;;;;;7.20;1.30;;;21.50;99.90;;;;;;5034681;28;20194;-81
2022/01/21 04:36:45;;;;;;;5.55;1.35;;;21.70;99.90;;;;;;5034427;28;20225;-80
2022/01/21 04:39:25;;;;;;;8.13;1.33;;;21.80;99.90;;;;;;5034397;28;20201;-81
2022/01/21 04:47:26;;;;;;;7.68;1.08;;;22.20;99.90;;;;;;5033651;28;20232;-81
2022/01/21 04:49:57;;;;;;;10.07;1.05;;;22.20;99.90;;;;;;5033769;28;20249;-80
2022/01/21 04:52:27;;;;;;;3.92;0.93;;;22.30;99.90;;;;;;5034357;28;20681;-80
2022/01/21 04:55:00;;;;;;;5.13;0.93;;;22.30;99.90;;;;;;5033457;28;20198;-80
2022/01/21 04:57:31;;;;;;;5.57;1.23;;;22.40;99.90;;;;;;5034018;28;20236;-79
2022/01/21 05:00:01;;;;;;;9.00;1.20;;;22.40;99.90;;;;;;5032816;28;20553;-80
2022/01/21 05:02:34;;;;;;;11.35;1.30;;;22.30;99.90;;;;;;5032872;28;20273;-79
2022/01/21 05:05:06;;;;;;;9.60;1.10;;;22.30;99.90;;;;;;5036279;28;20918;-80
2022/01/21 05:07:39;;;;;;;6.32;1.00;;;22.20;99.90;;;;;;5033571;28;20201;-80
2022/01/21 05:10:12;;;;;;;5.30;1.10;;;22.20;99.90;;;;;;5033684;28;20269;-80
2022/01/21 05:12:43;;;;;;;8.00;1.40;;;22.10;99.90;;;;;;5034454;28;20635;-80
2022/01/21 05:15:20;;;;;;;7.13;1.20;;;22.10;99.90;;;;;;5033670;28;20213;-81
2022/01/21 05:17:51;;;;;;;7.72;1.58;;;22.10;99.90;;;;;;5036626;28;20186;-81
2022/01/21 05:20:22;;;;;;;15.85;2.25;;;21.90;99.90;;;;;;5036999;28;20674;-84
2022/01/21 05:22:53;;;;;;;9.00;1.88;;;21.70;99.90;;;;;;5033534;28;20193;-87
2022/01/21 05:25:25;;;;;;;10.02;1.67;;;21.40;99.90;;;;;;5034211;28;20221;-79
2022/01/21 05:27:58;;;;;;;8.60;1.40;;;21.10;99.90;;;;;;5033352;28;20296;-85
2022/01/21 05:30:29;;;;;;;7.70;1.30;;;20.90;99.90;;;;;;5030921;28;20214;-82
2022/01/21 05:33:00;;;;;;;5.75;1.52;;;20.80;99.90;;;;;;5033301;28;20273;-81
2022/01/21 05:35:31;;;;;;;8.90;1.40;;;20.80;99.90;;;;;;5025134;28;20190;-79
2022/01/21 05:38:01;;;;;;;5.10;0.95;;;20.80;99.90;;;;;;5039954;28;20190;-79
2022/01/21 05:40:34;;;;;;;8.98;1.70;;;20.80;99.90;;;;;;5026477;28;20577;-79
2022/01/21 05:43:05;;;;;;;8.38;1.23;;;20.80;99.90;;;;;;5035970;28;20217;-79
2022/01/21 05:48:22;;;;;;;12.68;3.38;;;20.80;99.90;;;;;;5036923;28;20335;-86
2022/01/21 05:50:53;;;;;;;7.22;1.52;;;20.80;99.90;;;;;;5033719;28;20221;-85
2022/01/21 05:53:24;;;;;;;6.07;1.73;;;20.80;99.90;;;;;;5032516;28;20198;-86
2022/01/21 05:56:01;;;;;;;8.93;2.20;;;20.80;99.90;;;;;;5031547;28;20260;-87
2022/01/21 05:58:32;;;;;;;6.38;1.50;;;20.70;99.90;;;;;;5030011;28;20198;-86
2022/01/21 06:01:03;;;;;;;6.88;1.10;;;20.70;99.90;;;;;;5032440;28;20193;-84
2022/01/21 06:03:35;;;;;;;6.53;1.30;;;20.70;99.90;;;;;;5032280;28;20194;-86
2022/01/21 06:06:05;;;;;;;5.10;1.10;;;20.70;99.90;;;;;;5032537;28;20194;-86
2022/01/21 06:08:36;;;;;;;10.68;1.40;;;20.60;99.90;;;;;;5032534;28;20195;-85
2022/01/21 06:11:09;;;;;;;6.65;1.27;;;20.70;99.90;;;;;;5039508;28;20214;-86
2022/01/21 06:13:39;;;;;;;7.85;1.05;;;20.70;99.90;;;;;;5031864;28;20198;-84
2022/01/21 06:16:10;;;;;;;6.55;1.20;;;20.70;99.90;;;;;;5032805;28;20192;-83
2022/01/21 06:18:41;;;;;;;6.32;1.05;;;20.80;99.90;;;;;;5031888;28;20192;-84
2022/01/21 06:21:12;;;;;;;9.40;1.13;;;20.90;99.90;;;;;;5031150;28;20198;-84
2022/01/21 06:23:45;;;;;;;5.68;1.23;;;20.90;99.90;;;;;;5030149;28;20622;-84
2022/01/21 06:26:18;;;;;;;8.02;1.40;;;20.90;99.90;;;;;;5032623;28;20553;-82
2022/01/21 06:28:48;;;;;;;6.65;1.27;;;21.00;99.90;;;;;;5032476;28;20198;-83
2022/01/21 06:31:19;;;;;;;6.93;1.30;;;21.00;99.90;;;;;;5033501;28;20718;-82
2022/01/21 06:33:50;;;;;;;5.80;1.30;;;21.00;99.90;;;;;;5037968;28;20190;-82
2022/01/21 06:36:20;;;;;;;5.63;1.15;;;21.10;99.90;;;;;;5038433;28;20530;-81
2022/01/21 06:38:51;;;;;;;5.40;1.40;;;21.10;99.90;;;;;;5037966;28;20186;-81
2022/01/21 06:41:24;;;;;;;7.22;1.30;;;21.10;99.90;;;;;;5038647;28;20202;-81
2022/01/21 06:43:54;;;;;;;6.93;1.17;;;21.00;99.90;;;;;;5038757;28;20190;-80
2022/01/21 06:46:25;;;;;;;8.95;1.40;;;21.00;99.90;;;;;;5039306;28;20186;-80
2022/01/21 06:48:56;;;;;;;7.28;1.30;;;21.10;99.90;;;;;;5043514;28;20251;-80
2022/01/21 06:51:26;;;;;;;6.45;1.25;;;21.10;99.90;;;;;;5041166;28;20266;-81
2022/01/21 06:53:57;;;;;;;6.07;1.05;;;21.10;99.90;;;;;;5039701;28;20190;-82
2022/01/21 06:56:30;;;;;;;7.53;1.45;;;21.10;99.90;;;;;;5038953;28;20535;-81
2022/01/21 06:59:01;;;;;;;6.50;1.30;;;21.10;99.90;;;;;;5038387;28;20200;-80
2022/01/21 07:01:33;;;;;;;7.53;1.40;;;21.20;99.90;;;;;;5036738;28;20201;-80
2022/01/21 07:04:04;;;;;;;6.78;1.15;;;21.20;99.90;;;;;;5034239;28;20533;-80
2022/01/21 07:06:35;;;;;;;4.78;1.10;;;21.20;99.90;;;;;;5032036;28;20217;-81
2022/01/21 07:09:05;;;;;;;3.42;0.90;;;21.10;99.90;;;;;;5027747;28;20607;-80
2022/01/21 07:11:38;;;;;;;3.38;1.20;;;21.00;99.90;;;;;;5031138;28;20653;-80
2022/01/21 07:14:09;;;;;;;3.95;1.00;;;20.90;99.90;;;;;;5037052;28;20194;-81
2022/01/21 07:16:40;;;;;;;4.82;1.13;;;21.00;99.90;;;;;;5038319;28;20197;-79
2022/01/21 07:19:10;;;;;;;6.72;1.40;;;21.00;99.90;;;;;;5038894;28;20306;-81
2022/01/21 07:21:41;;;;;;;6.30;1.20;;;21.00;99.90;;;;;;5038662;28;20194;-79
2022/01/21 07:24:12;;;;;;;10.40;1.38;;;21.00;99.90;;;;;;5038434;28;20709;-80
2022/01/21 07:26:45;;;;;;;5.00;1.10;;;21.00;99.90;;;;;;5042775;28;20186;-81
2022/01/21 07:29:15;;;;;;;3.65;1.15;;;21.00;99.90;;;;;;5039608;28;20559;-82
2022/01/21 07:31:46;;;;;;;6.47;1.25;;;21.10;99.90;;;;;;5038684;28;20214;-82
2022/01/21 07:34:17;;;;;;;5.05;1.00;;;21.10;99.90;;;;;;5033869;28;20193;-80
2022/01/21 07:36:47;;;;;;;4.30;1.13;;;21.10;99.90;;;;;;5036011;28;20529;-82
2022/01/21 07:39:18;;;;;;;10.48;1.30;;;21.10;99.90;;;;;;5042590;28;20276;-78
2022/01/21 07:41:51;;;;;;;7.10;1.00;;;21.10;99.90;;;;;;5034085;28;20222;-79
2022/01/21 07:44:22;;;;;;;4.18;0.95;;;21.10;99.90;;;;;;5031565;28;20764;-79
2022/01/21 07:46:53;;;;;;;5.32;0.90;;;21.10;99.90;;;;;;5037227;28;20212;-79
2022/01/21 07:49:24;;;;;;;4.70;1.27;;;21.00;99.90;;;;;;5032201;28;21191;-80
2022/01/21 07:51:54;;;;;;;6.57;1.10;;;21.00;99.90;;;;;;5032765;28;20195;-80
2022/01/21 07:54:26;;;;;;;4.07;1.00;;;21.00;99.90;;;;;;5039750;28;20325;-81
2022/01/21 07:56:58;;;;;;;6.15;1.20;;;21.10;99.90;;;;;;5035350;28;20182;-79
2022/01/21 07:59:30;;;;;;;5.03;1.10;;;21.00;99.90;;;;;;5040042;28;20245;-78
2022/01/21 08:02:01;;;;;;;5.10;1.25;;;21.00;99.90;;;;;;5029680;28;20186;-79
2022/01/21 08:04:31;;;;;;;5.22;1.30;;;21.00;99.90;;;;;;5038123;28;20240;-81
2022/01/21 08:07:02;;;;;;;6.03;1.20;;;21.00;99.90;;;;;;5035702;28;20228;-79
2022/01/21 08:09:33;;;;;;;5.57;1.27;;;21.00;99.90;;;;;;5044117;28;20189;-79
2022/01/21 08:12:05;;;;;;;5.47;1.20;;;21.10;99.90;;;;;;5034610;28;20195;-79
2022/01/21 08:14:36;;;;;;;5.85;1.45;;;21.10;99.90;;;;;;5036000;28;20296;-80
2022/01/21 08:17:07;;;;;;;5.30;1.17;;;21.10;99.90;;;;;;5035397;28;20541;-79
2022/01/21 08:19:38;;;;;;;5.65;1.23;;;21.10;99.90;;;;;;5032991;28;20197;-80
2022/01/21 08:22:08;;;;;;;4.70;1.08;;;21.00;99.90;;;;;;5031111;28;20194;-79
2022/01/21 08:24:39;;;;;;;12.73;1.80;;;21.10;99.90;;;;;;5035824;28;20227;-81
2022/01/21 08:27:12;;;;;;;7.13;1.85;;;21.00;99.90;;;;;;5035414;28;20576;-80
2022/01/21 08:29:42;;;;;;;9.05;4.65;;;21.00;99.90;;;;;;5035913;28;20193;-81
2022/01/21 08:32:13;;;;;;;7.20;3.53;;;21.00;99.90;;;;;;5039485;28;20196;-83
2022/01/21 08:34:44;;;;;;;7.15;2.15;;;21.00;99.90;;;;;;5037501;28;20194;-80
2022/01/21 08:37:15;;;;;;;9.75;1.85;;;21.00;99.90;;;;;;5038536;28;20194;-80
2022/01/21 08:39:45;;;;;;;7.60;1.90;;;21.00;99.90;;;;;;5038679;28;20576;-81
2022/01/21 08:42:18;;;;;;;9.95;1.70;;;21.00;99.90;;;;;;5030763;28;20232;-81
2022/01/21 08:44:49;;;;;;;5.57;1.27;;;20.90;99.90;;;;;;5034201;28;20209;-83
2022/01/21 08:47:20;;;;;;;8.88;1.92;;;20.90;99.90;;;;;;5038834;28;20190;-79
2022/01/21 08:49:52;;;;;;;8.13;1.70;;;20.90;99.90;;;;;;5035204;28;20548;-80
2022/01/21 08:52:26;;;;;;;5.97;1.48;;;20.90;99.90;;;;;;5034139;28;20670;-79
2022/01/21 08:54:57;;;;;;;8.45;1.60;;;20.90;99.90;;;;;;5035561;28;20188;-80
2022/01/21 08:57:32;;;;;;;4.13;1.33;;;20.90;99.90;;;;;;5034573;28;20205;-79
2022/01/21 09:00:03;;;;;;;6.55;1.58;;;20.90;99.90;;;;;;5033274;28;20190;-81
2022/01/21 09:02:34;;;;;;;7.72;1.48;;;20.90;99.90;;;;;;5035201;28;20186;-82
2022/01/21 09:05:05;;;;;;;5.28;1.40;;;20.90;99.90;;;;;;5033736;28;20190;-81
2022/01/21 09:07:35;;;;;;;5.28;1.20;;;20.90;99.90;;;;;;5037626;28;20189;-80
2022/01/21 09:10:08;;;;;;;3.83;1.23;;;20.90;99.90;;;;;;5042348;28;20198;-80
2022/01/21 09:12:41;;;;;;;5.47;1.20;;;20.90;99.90;;;;;;5034140;28;20190;-81
2022/01/21 09:15:12;;;;;;;6.80;1.33;;;20.90;99.90;;;;;;5034866;28;20201;-80
2022/01/21 09:17:43;;;;;;;3.22;1.00;;;20.80;99.90;;;;;;5034037;28;20226;-81
2022/01/21 09:20:14;;;;;;;6.68;1.33;;;20.80;99.90;;;;;;5033536;28;20635;-80
2022/01/21 09:22:46;;;;;;;3.95;0.90;;;20.70;99.90;;;;;;5035109;28;20269;-80
2022/01/21 09:25:17;;;;;;;1.83;1.00;;;20.70;99.90;;;;;;5036223;28;20226;-81
2022/01/21 09:27:50;;;;;;;6.22;1.20;;;20.80;99.90;;;;;;5035498;28;20183;-82
2022/01/21 09:30:21;;;;;;;5.50;0.95;;;20.70;99.90;;;;;;5039692;28;20247;-82
2022/01/21 09:32:51;;;;;;;5.57;1.10;;;20.70;99.90;;;;;;5033479;28;20627;-79
2022/01/21 09:35:22;;;;;;;4.18;1.10;;;20.70;99.90;;;;;;5033552;28;20556;-80
2022/01/21 09:37:53;;;;;;;3.80;0.85;;;20.70;99.90;;;;;;5031215;28;20198;-80
2022/01/21 09:40:33;;;;;;;3.97;0.82;;;20.70;99.90;;;;;;5032382;28;20202;-79
2022/01/21 09:43:08;;;;;;;3.40;1.10;;;20.60;99.90;;;;;;5033099;28;20190;-80
2022/01/21 09:45:40;;;;;;;4.50;1.20;;;20.60;99.90;;;;;;5024455;28;20194;-80
2022/01/21 09:48:12;;;;;;;4.82;0.90;;;20.60;99.90;;;;;;5033681;28;20198;-79
2022/01/21 09:50:43;;;;;;;3.15;0.98;;;20.60;99.90;;;;;;5035153;28;20218;-80
2022/01/21 09:53:15;;;;;;;4.63;1.08;;;20.60;99.90;;;;;;5036354;28;20190;-79
2022/01/21 09:55:49;;;;;;;8.35;1.40;;;20.50;99.90;;;;;;5029017;28;20189;-79
2022/01/21 09:58:22;;;;;;;7.57;2.20;;;20.50;99.90;;;;;;5043679;28;20194;-80
2022/01/21 10:00:54;;;;;;;6.07;2.00;;;20.50;99.90;;;;;;5038189;28;20198;-80
2022/01/21 10:03:25;;;;;;;6.47;1.55;;;20.50;99.90;;;;;;5030385;28;20202;-80
2022/01/21 10:05:57;;;;;;;5.18;1.10;;;20.50;99.90;;;;;;5032753;28;20190;-80
2022/01/21 10:08:28;;;;;;;3.30;1.02;;;20.50;99.90;;;;;;5037442;28;20195;-81
2022/01/21 10:10:58;;;;;;;3.45;1.35;;;20.60;99.90;;;;;;5036496;28;20213;-81
2022/01/21 10:13:32;;;;;;;7.22;1.10;;;20.50;99.90;;;;;;5034874;28;20195;-83
2022/01/21 10:16:04;;;;;;;6.50;1.20;;;20.50;99.90;;;;;;5032793;28;20226;-84
2022/01/21 10:18:35;;;;;;;6.10;1.08;;;20.50;99.90;;;;;;5030574;28;20561;-83
2022/01/21 10:21:10;;;;;;;8.23;1.40;;;20.40;99.90;;;;;;5032937;28;20199;-84
2022/01/21 10:23:42;;;;;;;6.30;1.17;;;20.40;99.90;;;;;;5030187;28;20710;-82
2022/01/21 10:26:16;;;;;;;6.95;1.10;;;20.40;99.90;;;;;;5036632;28;20194;-81
2022/01/21 10:28:56;;;;;;;3.65;1.27;;;20.30;99.90;;;;;;5029240;28;20198;-81
2022/01/21 10:31:27;;;;;;;8.85;1.75;;;20.30;99.90;;;;;;5031726;28;20681;-84
2022/01/21 10:34:00;;;;;;;4.45;1.50;;;20.30;99.90;;;;;;5032632;28;20200;-84
2022/01/21 10:36:35;;;;;;;8.05;1.50;;;20.20;99.90;;;;;;5033084;28;20193;-83
2022/01/21 10:39:13;;;;;;;6.60;1.30;;;20.20;99.90;;;;;;5027076;28;20196;-85
2022/01/21 10:41:46;;;;;;;8.05;1.33;;;20.10;99.90;;;;;;5034633;28;20224;-84
2022/01/21 10:44:20;;;;;;;4.78;1.27;;;20.10;99.90;;;;;;5024107;28;20298;-83
2022/01/21 10:47:07;;;;;;;4.75;1.42;;;20.10;99.90;;;;;;5031673;28;20275;-84
2022/01/21 10:49:40;;;;;;;4.97;1.30;;;20.10;99.90;;;;;;5032474;28;20186;-82
2022/01/21 10:52:14;;;;;;;6.32;1.33;;;20.00;99.90;;;;;;5030970;28;20213;-85
2022/01/21 10:54:47;;;;;;;5.72;1.17;;;20.00;99.90;;;;;;5033531;28;20190;-85
2022/01/21 10:57:19;;;;;;;7.30;2.05;;;19.90;99.90;;;;;;5034316;28;20195;-83
2022/01/21 10:59:55;;;;;;;11.35;4.18;;;19.90;99.90;;;;;;5031577;28;20187;-84
2022/01/21 11:02:34;;;;;;;14.23;5.38;;;19.90;99.90;;;;;;5036826;28;20194;-82
2022/01/21 11:05:09;;;;;;;8.95;2.78;;;19.90;99.90;;;;;;5032082;28;20190;-83
2022/01/21 11:07:50;;;;;;;9.02;1.80;;;19.80;99.90;;;;;;5031347;28;20190;-84
2022/01/21 11:10:58;;;;;;;6.78;1.33;;;19.80;99.90;;;;;;5033332;28;20614;-83
2022/01/21 11:13:39;;;;;;;4.90;1.50;;;19.80;99.90;;;;;;5024087;28;20557;-84
2022/01/21 11:16:18;;;;;;;5.30;1.27;;;19.70;99.90;;;;;;5032235;28;20194;-84
2022/01/21 11:18:59;;;;;;;5.32;1.42;;;19.80;99.90;;;;;;5033757;28;20218;-83
2022/01/21 11:21:42;;;;;;;8.60;1.95;;;19.70;99.90;;;;;;5029087;28;20277;-82
2022/01/21 11:24:14;;;;;;;6.07;1.17;;;19.70;99.90;;;;;;5038309;28;20813;-82
2022/01/21 11:26:45;;;;;;;6.57;1.50;;;19.70;99.90;;;;;;5035578;28;20194;-81
2022/01/21 11:29:17;;;;;;;7.50;1.98;;;19.70;99.90;;;;;;5035820;28;20206;-81
2022/01/21 11:31:53;;;;;;;6.78;1.60;;;19.70;99.90;;;;;;5036029;28;20218;-82
2022/01/21 11:34:23;;;;;;;4.10;1.70;;;19.70;99.90;;;;;;5035418;28;20541;-84
2022/01/21 11:36:55;;;;;;;7.13;1.40;;;19.60;99.90;;;;;;5033578;28;20206;-82
2022/01/21 11:39:27;;;;;;;3.83;1.40;;;19.60;99.90;;;;;;5043082;28;20650;-81
2022/01/21 11:42:00;;;;;;;10.50;1.70;;;19.60;99.90;;;;;;5033859;28;20226;-81
2022/01/21 11:44:32;;;;;;;4.03;1.40;;;19.60;99.90;;;;;;5036139;28;21270;-82
2022/01/21 11:47:28;;;;;;;8.63;1.60;;;19.60;99.90;;;;;;5036021;28;20668;-81
2022/01/21 11:50:00;;;;;;;4.25;1.60;;;19.60;99.90;;;;;;5032362;28;20639;-81
2022/01/21 11:52:31;;;;;;;6.85;1.73;;;19.60;99.90;;;;;;5035160;28;20689;-81
2022/01/21 11:55:02;;;;;;;5.95;1.73;;;19.70;99.90;;;;;;5035054;28;20557;-80
2022/01/21 11:57:34;;;;;;;4.32;1.50;;;19.70;99.90;;;;;;5036513;28;20190;-82
2022/01/21 12:00:16;;;;;;;6.25;1.33;;;19.70;99.90;;;;;;5035536;28;20186;-81
2022/01/21 12:02:53;;;;;;;5.53;1.40;;;19.70;99.90;;;;;;5035481;28;20204;-81
2022/01/21 12:05:29;;;;;;;6.28;1.77;;;19.70;99.90;;;;;;5034637;28;20209;-80
2022/01/21 12:08:04;;;;;;;6.65;1.70;;;19.70;99.90;;;;;;5039775;28;20190;-80
2022/01/21 12:10:39;;;;;;;5.38;1.60;;;19.80;99.90;;;;;;5035265;28;20209;-81
2022/01/21 12:13:14;;;;;;;5.65;1.60;;;19.80;99.90;;;;;;5030158;28;20217;-81
2022/01/21 12:21:45;;;;;;;6.65;1.70;;;19.80;99.90;;;;;;5025907;28;20570;-80
2022/01/21 12:24:16;;;;;;;7.32;1.70;;;19.90;99.90;;;;;;5034035;28;20283;-80
2022/01/21 12:27:01;;;;;;;6.22;1.90;;;19.90;99.90;;;;;;5034302;28;20190;-81
2022/01/21 12:29:32;;;;;;;6.03;1.63;;;19.90;99.90;;;;;;5034690;28;20300;-80
2022/01/21 12:32:08;;;;;;;5.03;1.40;;;19.90;99.90;;;;;;5037271;28;20217;-80
2022/01/21 12:35:20;;;;;;;7.28;1.63;;;19.90;99.90;;;;;;5039893;28;20197;-83
2022/01/21 12:41:06;;;;;;;5.50;1.55;;;19.90;99.90;;;;;;5025368;28;20225;-83
2022/01/21 12:43:46;;;;;;;8.48;1.77;;;19.90;99.90;;;;;;5034505;28;20638;-83
2022/01/21 12:46:17;;;;;;;4.63;1.58;;;19.90;99.90;;;;;;5028269;28;20312;-83
2022/01/21 12:48:49;;;;;;;6.00;1.13;;;19.90;99.90;;;;;;5039226;28;20186;-83
2022/01/21 12:51:33;;;;;;;7.30;1.52;;;19.90;99.90;;;;;;5034168;28;20213;-83
2022/01/21 12:56:57;;;;;;;6.68;1.40;;;19.90;99.90;;;;;;5034046;28;20769;-82
2022/01/21 12:59:29;;;;;;;7.40;1.10;;;19.90;99.90;;;;;;5035282;28;20186;-83
2022/01/21 13:02:05;;;;;;;3.95;0.98;;;19.90;99.90;;;;;;5034864;28;20187;-81
2022/01/21 13:04:53;;;;;;;7.97;1.17;;;19.90;99.90;;;;;;5033958;28;20192;-82
2022/01/21 13:07:34;;;;;;;5.07;1.10;;;19.90;99.90;;;;;;5032372;28;20202;-82
2022/01/21 13:10:26;;;;;;;4.05;1.17;;;19.80;99.90;;;;;;5040695;28;20254;-82
2022/01/21 13:13:13;;;;;;;5.90;1.08;;;19.90;99.90;;;;;;5033318;28;20228;-83
2022/01/21 13:15:45;;;;;;;4.10;1.17;;;19.90;99.90;;;;;;5029248;28;20244;-80
2022/01/21 13:18:18;;;;;;;6.28;1.13;;;19.90;99.90;;;;;;5035613;28;20187;-83
2022/01/21 13:20:51;;;;;;;5.78;1.13;;;19.80;99.90;;;;;;5034204;28;20228;-81
2022/01/21 13:23:41;;;;;;;5.07;1.20;;;19.90;99.90;;;;;;5033206;28;20205;-81
2022/01/21 13:26:22;;;;;;;6.30;1.30;;;19.90;99.90;;;;;;5033867;28;20587;-81
2022/01/21 13:28:58;;;;;;;5.88;1.45;;;19.90;99.90;;;;;;5033807;28;20186;-81
2022/01/21 13:31:30;;;;;;;3.80;1.20;;;19.90;99.90;;;;;;5035319;28;20594;-82
2022/01/21 13:34:14;;;;;;;5.00;1.35;;;19.90;99.90;;;;;;5036977;28;20638;-80
2022/01/21 13:36:50;;;;;;;6.72;1.25;;;19.90;99.90;;;;;;5031044;28;20256;-80
2022/01/21 13:39:22;;;;;;;6.10;1.35;;;19.90;99.90;;;;;;5034023;28;20197;-81
2022/01/21 13:42:01;;;;;;;5.47;1.30;;;19.80;99.90;;;;;;5035413;28;20745;-80
2022/01/21 13:44:41;;;;;;;5.10;1.20;;;19.90;99.90;;;;;;5036851;28;20190;-81
2022/01/21 13:47:31;;;;;;;5.47;1.23;;;19.80;99.90;;;;;;5033051;28;20604;-80
2022/01/21 13:50:05;;;;;;;5.05;1.20;;;19.80;99.90;;;;;;5037820;28;20193;-80
2022/01/21 13:52:44;;;;;;;7.30;1.30;;;19.70;99.90;;;;;;5039649;28;20214;-81
2022/01/21 13:55:28;;;;;;;4.85;1.17;;;19.70;99.90;;;;;;5034881;28;20201;-80
2022/01/21 13:58:02;;;;;;;4.72;1.20;;;19.70;99.90;;;;;;5033695;28;20213;-80
2022/01/21 14:00:35;;;;;;;8.20;1.30;;;19.70;99.90;;;;;;5034277;28;20189;-80
2022/01/21 14:03:12;;;;;;;6.75;1.40;;;19.70;99.90;;;;;;5035860;28;20213;-80
2022/01/21 14:05:54;;;;;;;4.88;1.20;;;19.70;99.90;;;;;;5033633;28;20182;-81
2022/01/21 14:08:32;;;;;;;4.30;1.02;;;19.70;99.90;;;;;;5032765;28;20238;-81
2022/01/21 14:11:07;;;;;;;7.18;1.30;;;19.60;99.90;;;;;;5036532;28;20229;-80
2022/01/21 14:13:41;;;;;;;7.85;1.50;;;19.60;99.90;;;;;;5035072;28;20227;-80
2022/01/21 14:16:16;;;;;;;5.53;1.20;;;19.60;99.90;;;;;;5042609;28;20533;-80